Latest Weather Observations for Cooma Airport

IDN60801

Issued at 5:42 pm EDT Tuesday 26 March 2019 (issued every 10 minutes, with the page automatically refreshed every 10 minutes)

About weather observations | Map of weather stations | Latest weather observations for NSW | Other Formats
Station Details ID: 070217 Name: COOMA AIRPORT AWS Lat: -36.29 Lon: 148.97 Height: 930.0 m
Data from the previous 72 hours. | See also: Recent months at Cooma Airport
Date/Time
EDT
Temp
°C
App
Temp
°C
Dew
Point
°C
Rel
Hum
%
Delta-T
°C
Wind Press
QNH
hPa
Press
MSL
hPa
Rain since
9am
mm
Dir  Spd
km/h
Gust
km/h
Spd
kts
Gust
kts
26/05:30pm 15.6 10.0 1.4 38 6.5 WSW 20 28 11 15 1018.7 1015.9 0.0
26/05:00pm 15.5 7.8 0.1 35 6.9 SSW 30 41 16 22 1018.0 1015.1 0.0
26/04:30pm 15.9 8.5 -0.8 32 7.4 SSW 28 35 15 19 1017.9 1015.0 0.0
26/04:00pm 16.1 9.1 -0.6 32 7.4 SSW 26 35 14 19 1017.8 1014.9 0.0
26/03:30pm 16.3 9.5 0.8 35 7.1 SSW 26 33 14 18 1017.5 1014.6 0.0
26/03:00pm 15.9 10.3 0.1 34 7.1 SSW 19 37 10 20 1017.8 1014.9 0.0
26/02:30pm 15.6 9.9 0.6 36 6.8 SSW 20 33 11 18 1017.5 1014.6 0.0
26/02:00pm 15.2 8.7 0.6 37 6.6 SSW 24 32 13 17 1017.3 1014.4 0.0
26/01:30pm 14.7 8.5 -0.2 36 6.6 SSW 22 33 12 18 1017.4 1014.5 0.0
26/01:00pm 14.5 7.5 -0.8 35 6.7 SSW 26 35 14 19 1017.2 1014.3 0.0
26/12:30pm 14.1 8.1 -2.8 31 7.0 SSW 19 30 10 16 1017.2 1014.3 0.0
26/12:00pm 14.3 8.4 -2.1 32 6.9 SSW 19 28 10 15 1017.0 1014.1 0.0
26/11:30am 14.0 7.9 -2.0 33 6.8 SSW 20 32 11 17 1016.8 1013.9 0.0
26/11:00am 13.6 7.3 -3.6 30 7.0 WSW 20 33 11 18 1016.5 1013.6 0.0
26/10:30am 11.4 7.6 -0.4 44 5.0 SSE 9 15 5 8 1016.5 1013.6 0.0
26/10:00am 10.1 6.6 -1.0 46 4.6 WSW 7 13 4 7 1016.3 1013.4 0.0
26/09:30am 9.1 4.5 -0.8 50 4.1 SSW 13 17 7 9 1016.7 1013.8 0.0
26/09:00am 8.6 4.8 -0.4 53 3.7 SSW 9 13 5 7 1015.9 1013.0 0.0
26/08:30am 7.4 3.7 -0.1 59 3.1 WSW 9 11 5 6 1015.1 1012.2 0.0
26/08:00am 4.7 0.6 -0.1 71 1.9 SW 11 11 6 6 1014.8 1011.9 0.0
26/07:30am 1.2 -1.4 -2.0 79 1.2 NNW 2 15 1 8 1014.0 1011.1 0.0
26/07:00am 2.9 -0.7 -2.0 70 1.8 SE 7 13 4 7 1013.8 1010.9 0.0
26/06:30am 4.3 0.3 -2.3 62 2.5 NW 9 15 5 8 1013.4 1010.4 0.0
26/06:00am 4.8 0.1 -1.6 63 2.5 NNW 13 17 7 9 1013.2 1010.2 0.0
26/05:30am 5.2 0.3 -0.6 66 2.3 N 15 17 8 9 1013.0 1010.1 0.0
26/05:00am 4.8 0.6 -0.8 67 2.2 N 11 13 6 7 1012.9 1010.0 0.0
26/04:30am 6.0 3.1 -1.2 60 2.9 NNW 4 9 2 5 1012.8 1009.8 0.0
26/04:00am 6.3 3.1 -0.4 62 2.7 W 6 13 3 7 1013.0 1010.1 0.0
26/03:30am 7.2 4.0 -0.3 59 3.1 S 6 9 3 5 1012.9 1010.0 0.0
26/03:00am 8.0 3.9 -0.2 56 3.4 NW 11 19 6 10 1012.7 1009.7 0.0
26/02:30am 8.6 2.8 -0.2 54 3.7 WNW 20 35 11 19 1012.6 1009.6 0.0
26/02:00am 8.6 3.1 0.3 56 3.5 WNW 19 24 10 13 1012.9 1010.0 0.0
26/01:30am 8.9 2.8 0.4 55 3.6 WNW 22 32 12 17 1012.8 1009.8 0.0
26/01:00am 9.4 2.9 0.3 53 3.9 WNW 24 39 13 21 1012.9 1010.0 0.0
26/12:48am 9.5 1.5 0.4 53 3.9 WNW 32 50 17 27 1012.8 1009.8 0.0
26/12:30am 9.6 3.2 0.8 54 3.8 W 24 39 13 21 1012.9 1010.0 0.0
26/12:00am 9.3 5.5 1.5 58 3.4 W 11 26 6 14 1013.4 1010.4 0.0
 
Date/Time
EDT
Temp
°C
App
Temp
°C
Dew
Point
°C
Rel
Hum
%
Delta-T
°C
Wind Press
QNH
hPa
Press
MSL
hPa
Rain since
9am
mm
Dir  Spd
km/h
Gust
km/h
Spd
kts
Gust
kts
25/11:30pm 9.7 5.1 1.4 56 3.6 W 15 22 8 12 1013.4 1010.4 0.0
25/11:00pm 10.4 3.8 1.8 55 3.8 W 26 39 14 21 1013.2 1010.2 0.0
25/10:30pm 10.1 4.2 2.0 57 3.6 WNW 22 32 12 17 1012.6 1009.6 0.0
25/10:00pm 9.7 6.0 2.6 61 3.2 NW 11 20 6 11 1012.5 1009.5 0.0
25/09:30pm 9.5 6.1 2.1 60 3.3 NNW 9 13 5 7 1012.5 1009.5 0.0
25/09:00pm 10.2 5.7 2.1 57 3.6 W 15 28 8 15 1012.2 1009.2 0.0
25/08:30pm 10.3 5.4 1.9 56 3.7 WSW 17 22 9 12 1011.6 1008.6 0.0
25/08:00pm 11.3 5.5 2.1 53 4.2 WSW 22 32 12 17 1011.1 1008.1 0.0
25/07:30pm 12.2 4.9 2.4 51 4.5 W 30 44 16 24 1010.3 1007.3 0.0
25/07:00pm 12.8 4.3 3.2 52 4.5 W 37 59 20 32 1010.0 1007.0 0.0
25/06:30pm 13.8 6.1 2.4 46 5.3 W 32 50 17 27 1009.8 1006.7 0.0
25/06:00pm 15.2 7.6 4.0 47 5.5 WSW 33 52 18 28 1009.5 1006.5 0.0
25/05:43pm 15.7 8.6 3.5 44 5.9 W 30 50 16 27 1009.1 1006.1 0.0
25/05:30pm 16.2 10.0 4.3 45 5.9 W 26 44 14 24 1009.1 1006.1 0.0
25/05:15pm 16.8 10.3 4.8 45 6.0 W 28 46 15 25 1009.0 1005.9 0.0
25/05:00pm 16.5 9.1 4.9 46 5.8 W 33 50 18 27 1008.6 1005.5 0.0
25/04:30pm 17.0 9.8 7.6 54 5.0 W 35 61 19 33 1007.8 1004.7 0.0
25/04:00pm 17.3 8.7 8.2 55 4.9 WNW 43 82 23 44 1006.8 1003.7 0.0
25/03:49pm 17.3 8.5 7.9 54 5.0 W 44 72 24 39 1006.6 1003.5 0.0
25/03:30pm 17.7 10.0 8.6 55 4.9 WNW 39 74 21 40 1005.9 1002.8 0.0
25/03:00pm 17.8 7.3 8.9 56 4.9 WNW 54 78 29 42 1005.5 1002.4 0.0
25/02:30pm 18.6 8.1 8.8 53 5.3 WNW 54 80 29 43 1005.3 1002.2 0.0
25/02:00pm 18.7 9.7 10.3 58 4.7 WNW 48 85 26 46 1005.1 1001.9 0.0
25/01:30pm 19.1 9.5 10.9 59 4.7 WNW 52 78 28 42 1005.1 1001.9 0.0
25/01:00pm 19.0 8.4 10.8 59 4.7 NW 57 91 31 49 1004.5 1001.4 0.0
25/12:30pm 20.1 10.3 11.3 57 5.1 WNW 54 91 29 49 1004.6 1001.5 0.0
25/12:11pm 19.6 10.5 11.1 58 4.9 WNW 50 82 27 44 1004.9 1001.8 0.0
25/12:00pm 19.6 11.9 11.4 59 4.7 NW 43 63 23 34 1004.6 1001.5 0.0
25/11:30am 19.4 10.9 11.9 62 4.3 WNW 48 87 26 47 1004.8 1001.7 0.0
25/11:00am 19.0 10.3 11.3 61 4.4 WNW 48 80 26 43 1004.8 1001.7 0.0
25/10:30am 19.4 11.4 11.2 59 4.7 NW 44 72 24 39 1005.5 1002.4 0.0
25/10:00am 19.5 11.7 11.3 59 4.7 NW 43 76 23 41 1005.5 1002.4 0.0
25/09:51am 19.5 12.5 11.3 59 4.7 NW 39 76 21 41 1005.3 1002.2 0.0
25/09:42am 19.6 11.7 11.6 60 4.6 NW 44 78 24 42 1005.2 1002.0 0.0
25/09:41am 19.6 11.4 11.6 60 4.6 NW 46 78 25 42 1005.2 1002.0 0.0
25/09:32am 19.6 11.9 11.4 59 4.7 NW 43 83 23 45 1005.7 1002.6 0.0
25/09:31am 19.6 12.3 11.4 59 4.7 NW 41 83 22 45 1005.7 1002.6 0.0
25/09:30am 19.6 12.7 11.6 60 4.6 NW 39 65 21 35 1005.6 1002.5 0.0
25/09:00am 18.9 11.6 11.5 62 4.3 NW 41 65 22 35 1005.6 1002.5 0.0
25/08:30am 18.3 13.3 12.1 67 3.6 NW 30 59 16 32 1005.9 1002.8 0.0
25/08:26am 18.2 13.3 12.6 70 3.3 NW 30 59 16 32 1006.0 1002.9 0.0
25/08:25am 18.2 13.6 12.4 69 3.4 NW 28 59 15 32 1006.0 1002.9 0.0
25/08:04am 17.4 13.1 13.3 77 2.4 NNW 28 48 15 26 1006.6 1003.5 0.0
25/08:00am 17.4 13.1 13.3 77 2.4 NNW 28 44 15 24 1006.6 1003.5 0.0
25/07:30am 17.1 13.4 12.8 76 2.5 NNW 24 37 13 20 1007.0 1003.9 0.0
25/07:00am 17.8 15.7 12.3 70 3.2 NW 15 28 8 15 1006.7 1003.6 0.0
25/06:30am 18.2 13.7 12.6 70 3.3 NW 28 43 15 23 1006.1 1003.0 0.0
25/06:02am 18.0 13.6 12.9 72 3.0 NW 28 46 15 25 1005.7 1002.6 0.0
25/06:00am 18.0 14.0 12.9 72 3.0 NW 26 46 14 25 1005.6 1002.5 0.0
25/05:30am 18.2 14.5 12.6 70 3.3 NW 24 41 13 22 1005.5 1002.4 0.0
25/05:00am 18.0 12.7 12.5 70 3.2 NW 32 65 17 35 1005.5 1002.4 0.0
25/04:54am 18.1 13.6 12.5 70 3.3 NW 28 65 15 35 1005.7 1002.6 0.0
25/04:53am 18.2 14.0 12.4 69 3.4 NW 26 65 14 35 1005.7 1002.6 0.0
25/04:35am 18.0 13.5 12.5 70 3.2 WNW 28 46 15 25 1005.8 1002.7 0.0
25/04:30am 18.3 13.4 12.5 69 3.4 NW 30 44 16 24 1006.0 1002.9 0.0
25/04:00am 18.2 12.8 12.2 68 3.5 WNW 32 54 17 29 1006.4 1003.3 0.0
25/03:30am 18.3 12.4 12.5 69 3.4 NW 35 59 19 32 1006.0 1002.9 0.0
25/03:20am 18.3 13.8 12.5 69 3.4 NW 28 50 15 27 1006.4 1003.3 0.0
25/03:00am 18.2 14.3 12.0 67 3.6 NW 24 46 13 25 1006.9 1003.8 0.0
25/02:30am 18.3 15.2 12.1 67 3.6 NW 20 35 11 19 1007.9 1004.8 0.0
25/02:00am 18.4 14.4 11.7 65 3.9 NW 24 46 13 25 1008.0 1004.9 0.0
25/01:30am 18.4 13.6 11.7 65 3.8 NW 28 46 15 25 1008.6 1005.5 0.0
25/01:16am 18.2 13.3 11.3 64 3.9 NW 28 48 15 26 1008.7 1005.6 0.0
25/01:00am 18.2 13.8 11.7 66 3.7 NW 26 43 14 23 1008.4 1005.4 0.0
25/12:30am 17.5 14.6 12.8 74 2.7 NNW 20 28 11 15 1008.9 1005.8 0.0
25/12:00am 17.8 15.0 12.7 72 3.0 NNW 19 26 10 14 1009.3 1006.3 0.0
 
Date/Time
EDT
Temp
°C
App
Temp
°C
Dew
Point
°C
Rel
Hum
%
Delta-T
°C
Wind Press
QNH
hPa
Press
MSL
hPa
Rain since
9am
mm
Dir  Spd
km/h
Gust
km/h
Spd
kts
Gust
kts
24/11:30pm 17.4 14.4 12.5 73 2.8 N 20 28 11 15 1009.3 1006.3 0.0
24/11:00pm 17.7 14.3 12.6 72 3.0 NNW 22 33 12 18 1010.7 1007.7 0.0
24/10:30pm 17.9 13.8 12.6 71 3.1 NNW 26 39 14 21 1010.6 1007.6 0.0
24/10:27pm 18.0 13.5 12.7 71 3.1 NNW 28 39 15 21 1010.5 1007.5 0.0
24/10:00pm 17.8 16.1 12.5 71 3.1 N 13 20 7 11 1010.7 1007.7 0.0
24/09:30pm 18.5 16.1 12.5 68 3.5 NW 17 33 9 18 1011.4 1008.4 0.0
24/09:00pm 18.3 15.5 12.5 69 3.4 N 19 28 10 15 1011.3 1008.3 0.0
24/08:30pm 18.3 15.8 12.3 68 3.5 N 17 24 9 13 1011.6 1008.6 0.0
24/08:00pm 18.6 15.4 11.9 65 3.9 NNW 20 32 11 17 1011.7 1008.7 0.0
24/07:30pm 19.1 15.6 12.1 64 4.1 NNW 22 30 12 16 1011.8 1008.8 0.0
24/07:00pm 19.6 17.0 11.9 61 4.5 NNW 17 22 9 12 1011.8 1008.8 0.0
24/06:30pm 20.2 17.9 11.7 58 4.9 NW 15 22 8 12 1011.7 1008.7 0.0
24/06:00pm 20.8 18.0 11.4 55 5.4 NW 17 30 9 16 1012.1 1009.1 0.0
24/05:30pm 21.2 17.8 11.2 53 5.8 W 20 33 11 18 1012.3 1009.3 0.0
24/05:00pm 21.7 18.3 11.1 51 6.1 NW 20 33 11 18 1012.2 1009.2 0.0
24/04:30pm 22.4 18.5 10.9 48 6.6 WNW 22 35 12 19 1012.2 1009.2 0.0
24/04:00pm 22.7 19.3 11.1 48 6.7 WNW 20 30 11 16 1012.0 1009.0 0.0
24/03:30pm 22.7 17.4 9.8 44 7.3 WNW 28 41 15 22 1012.0 1009.0 0.0
24/03:21pm 22.6 16.4 9.4 43 7.4 WNW 32 50 17 27 1012.1 1009.1 0.0
24/03:14pm 23.1 19.9 9.8 43 7.6 WNW 17 41 9 22 1012.2 1009.2 0.0
24/03:00pm 22.6 21.8 12.8 54 5.9 NW 9 17 5 9 1012.4 1009.4 0.0
24/02:30pm 21.7 17.7 11.7 53 5.8 NNW 24 35 13 19 1012.7 1009.7 0.0
24/02:00pm 21.5 19.3 13.2 59 5.0 NW 17 28 9 15 1013.2 1010.2 0.0
24/01:30pm 20.5 18.3 12.0 58 5.0 NNW 15 24 8 13 1013.9 1011.0 0.0
24/01:00pm 20.0 17.8 12.0 60 4.7 NW 15 24 8 13 1014.6 1011.6 0.0
24/12:30pm 20.8 17.8 13.7 64 4.3 NW 22 35 12 19 1014.1 1011.2 0.0
24/12:00pm 18.9 14.8 12.6 67 3.7 WNW 26 39 14 21 1014.7 1011.7 0.0
24/11:30am 19.9 17.0 12.9 64 4.1 WNW 20 32 11 17 1015.1 1012.2 0.0
24/11:00am 19.1 14.5 12.4 65 3.9 WNW 28 48 15 26 1015.6 1012.6 0.0
24/10:52am 18.9 14.0 12.4 66 3.8 W 30 48 16 26 1015.7 1012.7 0.0
24/10:30am 18.6 15.2 12.4 67 3.6 WNW 22 37 12 20 1015.5 1012.5 0.0
24/10:00am 17.8 15.3 10.9 64 3.9 NNW 15 30 8 16 1015.5 1012.5 0.0
24/09:30am 17.4 15.1 10.3 63 4.0 N 13 19 7 10 1015.9 1013.0 0.0
24/09:00am 16.7 15.1 11.4 71 3.0 N 11 15 6 8 1015.7 1012.7 0.6
24/08:30am 17.2 15.9 9.1 59 4.4 WNW 6 9 3 5 1015.5 1012.5 0.6
24/08:00am 16.7 16.8 10.1 65 3.6 CALM 0 2 0 1 1015.6 1012.6 0.6
24/07:30am 18.2 17.6 9.0 55 5.0 WSW 2 9 1 5 1015.1 1012.2 0.6
24/07:00am 16.9 15.7 10.3 65 3.7 NNW 7 11 4 6 1014.9 1012.0 0.6
24/06:30am 17.4 14.4 10.5 64 3.9 SW 17 24 9 13 1014.4 1011.4 0.6
24/06:00am 15.8 15.0 11.6 76 2.4 NE 7 15 4 8 1014.4 1011.4 0.6
24/05:30am 16.7 16.6 10.8 68 3.3 SW 2 7 1 4 1013.9 1011.0 0.6
24/05:00am 14.2 14.0 13.1 93 0.6 NE 6 9 3 5 1014.1 1011.2 0.6
24/04:30am 14.2 13.4 12.8 91 0.8 NNE 9 11 5 6 1013.7 1010.7 0.6
24/04:00am 14.3 13.9 12.9 91 0.8 NNE 7 13 4 7 1013.8 1010.9 0.6
24/03:30am 14.6 13.3 12.6 88 1.1 NE 11 15 6 8 1013.7 1010.7 0.6
24/03:00am 14.2 13.4 12.8 91 0.8 NE 9 11 5 6 1013.9 1011.0 0.6
24/02:30am 14.1 13.0 12.1 88 1.1 NNE 9 13 5 7 1014.2 1011.3 0.6
24/02:00am 14.6 13.5 12.1 85 1.4 NNE 9 11 5 6 1014.1 1011.2 0.6
24/01:30am 14.4 14.5 11.6 83 1.6 NE 2 7 1 4 1014.0 1011.1 0.6
24/01:00am 15.0 14.3 11.4 79 2.0 ENE 6 7 3 4 1014.5 1011.5 0.6
24/12:30am 15.4 15.1 11.4 77 2.3 NNE 4 7 2 4 1014.6 1011.6 0.6
24/12:00am 16.5 15.6 11.4 72 2.9 NE 7 11 4 6 1014.8 1011.9 0.6
 
Date/Time
EDT
Temp
°C
App
Temp
°C
Dew
Point
°C
Rel
Hum
%
Delta-T
°C
Wind Press
QNH
hPa
Press
MSL
hPa
Rain since
9am
mm
Dir  Spd
km/h
Gust
km/h
Spd
kts
Gust
kts
23/11:30pm 16.7 14.8 10.5 67 3.5 NNW 11 13 6 7 1014.9 1012.0 0.6
23/11:00pm 18.1 15.6 11.2 64 3.9 WNW 15 20 8 11 1014.8 1011.9 0.6
23/10:30pm 17.0 16.3 11.3 69 3.2 NW 6 13 3 7 1014.7 1011.7 0.6
23/10:00pm 17.6 15.5 11.2 66 3.6 NNW 13 20 7 11 1014.5 1011.5 0.6
23/09:30pm 18.3 16.3 11.6 65 3.8 WNW 13 19 7 10 1014.0 1011.1 0.6
23/09:00pm 18.5 18.2 11.6 64 4.0 NNW 4 9 2 5 1014.0 1011.1 0.6
23/08:30pm 17.4 16.2 12.9 75 2.6 E 11 15 6 8 1013.6 1010.6 0.6
23/08:00pm 17.0 15.8 13.9 82 1.8 ENE 13 15 7 8 1013.3 1010.3 0.6
23/07:30pm 17.3 15.9 13.4 78 2.3 NNE 13 19 7 10 1013.4 1010.4 0.6
23/07:00pm 17.0 16.0 13.5 80 2.1 NE 11 13 6 7 1013.3 1010.3 0.6
23/06:30pm 17.6 15.0 13.1 75 2.6 ENE 19 24 10 13 1012.9 1010.0 0.6
23/06:00pm 18.6 15.8 13.2 71 3.2 NNE 20 22 11 12 1013.0 1010.1 0.6

Other formats

Comma delimited format used in spreadsheet applications
http://www.bom.gov.au/fwo/IDN60801/IDN60801.94921.axf

JavaScript Object Notation format (JSON) in row-major order
http://www.bom.gov.au/fwo/IDN60801/IDN60801.94921.json

Data quality

Most of these data are generated automatically and are frequently updated. Quality checks on data are not normally performed. It is possible for incorrect values to appear. Refer to information at About Latest Weather Observations and please check the disclaimer before using these data.